sensor_id;sensor_type;location;lat;lon;timestamp;temperature;humidity
22578;DHT22;11455;52.390;13.028;2023-07-08T00:01:08;21.20;1.00
22578;DHT22;11455;52.390;13.028;2023-07-08T00:03:36;21.20;1.00
22578;DHT22;11455;52.390;13.028;2023-07-08T00:06:01;21.20;1.00
22578;DHT22;11455;52.390;13.028;2023-07-08T00:08:27;21.10;1.00
22578;DHT22;11455;52.390;13.028;2023-07-08T00:10:53;21.10;1.00
22578;DHT22;11455;52.390;13.028;2023-07-08T00:13:18;21.10;1.00
22578;DHT22;11455;52.390;13.028;2023-07-08T00:15:44;21.00;1.00
22578;DHT22;11455;52.390;13.028;2023-07-08T00:18:13;21.00;1.00
22578;DHT22;11455;52.390;13.028;2023-07-08T00:20:43;21.00;1.00
22578;DHT22;11455;52.390;13.028;2023-07-08T00:23:12;21.10;1.00
22578;DHT22;11455;52.390;13.028;2023-07-08T00:25:40;21.10;1.00
22578;DHT22;11455;52.390;13.028;2023-07-08T00:28:12;21.20;1.00
22578;DHT22;11455;52.390;13.028;2023-07-08T00:30:39;21.20;1.00
22578;DHT22;11455;52.390;13.028;2023-07-08T00:33:05;21.20;1.00
22578;DHT22;11455;52.390;13.028;2023-07-08T00:35:38;21.20;1.00
22578;DHT22;11455;52.390;13.028;2023-07-08T00:38:20;21.20;1.00
22578;DHT22;11455;52.390;13.028;2023-07-08T00:40:50;21.20;1.00
22578;DHT22;11455;52.390;13.028;2023-07-08T00:43:16;21.20;1.00
22578;DHT22;11455;52.390;13.028;2023-07-08T00:45:43;21.20;1.00
22578;DHT22;11455;52.390;13.028;2023-07-08T00:48:21;21.20;1.00
22578;DHT22;11455;52.390;13.028;2023-07-08T00:50:47;21.20;1.00
22578;DHT22;11455;52.390;13.028;2023-07-08T00:53:24;21.10;1.00
22578;DHT22;11455;52.390;13.028;2023-07-08T00:55:51;21.00;1.00
22578;DHT22;11455;52.390;13.028;2023-07-08T00:58:17;21.00;1.00
22578;DHT22;11455;52.390;13.028;2023-07-08T01:00:44;21.00;1.00
22578;DHT22;11455;52.390;13.028;2023-07-08T01:03:10;21.10;1.00
22578;DHT22;11455;52.390;13.028;2023-07-08T01:05:36;21.10;1.00
22578;DHT22;11455;52.390;13.028;2023-07-08T01:08:04;21.20;1.00
22578;DHT22;11455;52.390;13.028;2023-07-08T01:10:34;21.10;1.00
22578;DHT22;11455;52.390;13.028;2023-07-08T01:13:03;21.00;1.00
22578;DHT22;11455;52.390;13.028;2023-07-08T01:15:31;21.00;1.00
22578;DHT22;11455;52.390;13.028;2023-07-08T01:17:59;21.00;1.00
22578;DHT22;11455;52.390;13.028;2023-07-08T01:20:26;21.00;1.00
22578;DHT22;11455;52.390;13.028;2023-07-08T01:22:52;21.00;1.00
22578;DHT22;11455;52.390;13.028;2023-07-08T01:25:20;21.00;1.00
22578;DHT22;11455;52.390;13.028;2023-07-08T01:27:47;21.00;1.00
22578;DHT22;11455;52.390;13.028;2023-07-08T01:30:13;21.00;1.00
22578;DHT22;11455;52.390;13.028;2023-07-08T01:32:49;21.00;1.00
22578;DHT22;11455;52.390;13.028;2023-07-08T01:35:16;21.00;1.00
22578;DHT22;11455;52.390;13.028;2023-07-08T01:37:43;21.10;1.00
22578;DHT22;11455;52.390;13.028;2023-07-08T01:40:30;21.10;1.00
22578;DHT22;11455;52.390;13.028;2023-07-08T01:42:57;21.10;1.00
22578;DHT22;11455;52.390;13.028;2023-07-08T01:45:23;21.10;1.00
22578;DHT22;11455;52.390;13.028;2023-07-08T01:48:22;21.10;1.00
22578;DHT22;11455;52.390;13.028;2023-07-08T01:50:42;21.10;1.00
22578;DHT22;11455;52.390;13.028;2023-07-08T01:53:11;21.10;1.00
22578;DHT22;11455;52.390;13.028;2023-07-08T01:55:37;21.10;1.00
22578;DHT22;11455;52.390;13.028;2023-07-08T01:58:02;21.10;1.00
22578;DHT22;11455;52.390;13.028;2023-07-08T02:00:28;21.10;1.00
22578;DHT22;11455;52.390;13.028;2023-07-08T02:02:56;21.10;1.00
22578;DHT22;11455;52.390;13.028;2023-07-08T02:05:22;21.10;1.00
22578;DHT22;11455;52.390;13.028;2023-07-08T02:07:48;21.00;1.00
22578;DHT22;11455;52.390;13.028;2023-07-08T02:10:14;21.00;1.00
22578;DHT22;11455;52.390;13.028;2023-07-08T02:12:39;21.00;1.00
22578;DHT22;11455;52.390;13.028;2023-07-08T02:15:05;21.00;1.00
22578;DHT22;11455;52.390;13.028;2023-07-08T02:17:31;21.00;1.00
22578;DHT22;11455;52.390;13.028;2023-07-08T02:19:56;20.90;1.00
22578;DHT22;11455;52.390;13.028;2023-07-08T02:22:22;20.90;1.00
22578;DHT22;11455;52.390;13.028;2023-07-08T02:24:48;20.90;1.00
22578;DHT22;11455;52.390;13.028;2023-07-08T02:27:22;20.90;1.00
22578;DHT22;11455;52.390;13.028;2023-07-08T02:29:50;20.80;1.00
22578;DHT22;11455;52.390;13.028;2023-07-08T02:32:15;20.90;1.00
22578;DHT22;11455;52.390;13.028;2023-07-08T02:34:41;20.90;1.00
22578;DHT22;11455;52.390;13.028;2023-07-08T02:37:10;20.80;1.00
22578;DHT22;11455;52.390;13.028;2023-07-08T02:39:35;20.80;1.00
22578;DHT22;11455;52.390;13.028;2023-07-08T02:42:01;20.80;1.00
22578;DHT22;11455;52.390;13.028;2023-07-08T02:44:26;20.80;1.00
22578;DHT22;11455;52.390;13.028;2023-07-08T02:46:52;20.70;1.00
22578;DHT22;11455;52.390;13.028;2023-07-08T02:49:18;20.70;1.00
22578;DHT22;11455;52.390;13.028;2023-07-08T02:51:43;20.70;1.00
22578;DHT22;11455;52.390;13.028;2023-07-08T02:54:09;20.70;1.00
22578;DHT22;11455;52.390;13.028;2023-07-08T02:56:34;20.80;1.00
22578;DHT22;11455;52.390;13.028;2023-07-08T02:59:00;20.80;1.00
22578;DHT22;11455;52.390;13.028;2023-07-08T03:01:26;20.80;1.00
22578;DHT22;11455;52.390;13.028;2023-07-08T03:03:52;20.70;1.00
22578;DHT22;11455;52.390;13.028;2023-07-08T03:06:28;20.70;1.00
22578;DHT22;11455;52.390;13.028;2023-07-08T03:08:54;20.70;1.00
22578;DHT22;11455;52.390;13.028;2023-07-08T03:11:19;20.60;1.00
22578;DHT22;11455;52.390;13.028;2023-07-08T03:13:45;20.70;1.00
22578;DHT22;11455;52.390;13.028;2023-07-08T03:16:11;20.70;1.00
22578;DHT22;11455;52.390;13.028;2023-07-08T03:18:39;20.80;1.00
22578;DHT22;11455;52.390;13.028;2023-07-08T03:21:12;20.80;1.00
22578;DHT22;11455;52.390;13.028;2023-07-08T03:23:41;20.80;1.00
22578;DHT22;11455;52.390;13.028;2023-07-08T03:26:07;20.90;1.00
22578;DHT22;11455;52.390;13.028;2023-07-08T03:28:33;20.90;1.00
22578;DHT22;11455;52.390;13.028;2023-07-08T03:30:59;20.90;1.00
22578;DHT22;11455;52.390;13.028;2023-07-08T03:33:24;21.00;1.00
22578;DHT22;11455;52.390;13.028;2023-07-08T03:35:50;20.90;1.00
22578;DHT22;11455;52.390;13.028;2023-07-08T03:38:16;20.80;1.00
22578;DHT22;11455;52.390;13.028;2023-07-08T03:40:44;20.90;1.00
22578;DHT22;11455;52.390;13.028;2023-07-08T03:43:09;20.90;1.00
22578;DHT22;11455;52.390;13.028;2023-07-08T03:45:38;20.90;1.00
22578;DHT22;11455;52.390;13.028;2023-07-08T03:48:12;20.90;1.00
22578;DHT22;11455;52.390;13.028;2023-07-08T03:50:38;20.90;1.00
22578;DHT22;11455;52.390;13.028;2023-07-08T03:53:04;20.80;1.00
22578;DHT22;11455;52.390;13.028;2023-07-08T03:55:31;20.80;1.00
22578;DHT22;11455;52.390;13.028;2023-07-08T03:57:58;20.80;1.00
22578;DHT22;11455;52.390;13.028;2023-07-08T04:00:26;20.80;1.00
22578;DHT22;11455;52.390;13.028;2023-07-08T04:02:51;20.70;1.00
22578;DHT22;11455;52.390;13.028;2023-07-08T04:05:21;20.70;1.00
22578;DHT22;11455;52.390;13.028;2023-07-08T04:07:47;20.80;1.00
22578;DHT22;11455;52.390;13.028;2023-07-08T04:10:13;20.80;1.00
22578;DHT22;11455;52.390;13.028;2023-07-08T04:12:39;20.70;1.00
22578;DHT22;11455;52.390;13.028;2023-07-08T04:15:06;20.70;1.00
22578;DHT22;11455;52.390;13.028;2023-07-08T04:17:32;20.70;1.00
22578;DHT22;11455;52.390;13.028;2023-07-08T04:19:58;20.70;1.00
22578;DHT22;11455;52.390;13.028;2023-07-08T04:22:31;20.70;1.00
22578;DHT22;11455;52.390;13.028;2023-07-08T04:24:57;20.70;1.00
22578;DHT22;11455;52.390;13.028;2023-07-08T04:27:22;20.70;1.00
22578;DHT22;11455;52.390;13.028;2023-07-08T04:29:50;20.70;1.00
22578;DHT22;11455;52.390;13.028;2023-07-08T04:32:16;20.70;1.00
22578;DHT22;11455;52.390;13.028;2023-07-08T04:34:41;20.80;1.00
22578;DHT22;11455;52.390;13.028;2023-07-08T04:37:08;20.80;1.00
22578;DHT22;11455;52.390;13.028;2023-07-08T04:39:34;20.90;1.00
22578;DHT22;11455;52.390;13.028;2023-07-08T04:42:00;20.90;1.00
22578;DHT22;11455;52.390;13.028;2023-07-08T04:44:26;21.00;1.00
22578;DHT22;11455;52.390;13.028;2023-07-08T04:46:54;21.10;1.00
22578;DHT22;11455;52.390;13.028;2023-07-08T04:49:20;21.10;1.00
22578;DHT22;11455;52.390;13.028;2023-07-08T04:51:46;21.20;1.00
22578;DHT22;11455;52.390;13.028;2023-07-08T04:54:11;21.20;1.00
22578;DHT22;11455;52.390;13.028;2023-07-08T04:56:38;21.30;1.00
22578;DHT22;11455;52.390;13.028;2023-07-08T04:59:05;21.30;1.00
22578;DHT22;11455;52.390;13.028;2023-07-08T05:01:31;21.40;1.00
22578;DHT22;11455;52.390;13.028;2023-07-08T05:03:56;21.40;1.00
22578;DHT22;11455;52.390;13.028;2023-07-08T05:06:22;21.50;1.00
22578;DHT22;11455;52.390;13.028;2023-07-08T05:08:47;21.70;1.00
22578;DHT22;11455;52.390;13.028;2023-07-08T05:11:13;21.80;1.00
22578;DHT22;11455;52.390;13.028;2023-07-08T05:13:39;21.90;1.00
22578;DHT22;11455;52.390;13.028;2023-07-08T05:16:04;22.10;1.00
22578;DHT22;11455;52.390;13.028;2023-07-08T05:18:30;22.10;1.00
22578;DHT22;11455;52.390;13.028;2023-07-08T05:20:56;22.10;1.00
22578;DHT22;11455;52.390;13.028;2023-07-08T05:23:21;22.10;1.00
22578;DHT22;11455;52.390;13.028;2023-07-08T05:25:50;22.20;1.00
22578;DHT22;11455;52.390;13.028;2023-07-08T05:28:15;22.30;1.00
22578;DHT22;11455;52.390;13.028;2023-07-08T05:30:41;22.30;1.00
22578;DHT22;11455;52.390;13.028;2023-07-08T05:33:07;22.40;1.00
22578;DHT22;11455;52.390;13.028;2023-07-08T05:35:33;22.50;1.00
22578;DHT22;11455;52.390;13.028;2023-07-08T05:37:58;22.50;1.00
22578;DHT22;11455;52.390;13.028;2023-07-08T05:40:24;22.60;1.00
22578;DHT22;11455;52.390;13.028;2023-07-08T05:42:50;22.60;1.00
22578;DHT22;11455;52.390;13.028;2023-07-08T05:45:15;22.70;1.00
22578;DHT22;11455;52.390;13.028;2023-07-08T05:47:41;22.70;1.00
22578;DHT22;11455;52.390;13.028;2023-07-08T05:50:07;22.80;1.00
22578;DHT22;11455;52.390;13.028;2023-07-08T05:52:32;22.70;1.00
22578;DHT22;11455;52.390;13.028;2023-07-08T05:54:58;22.80;1.00
22578;DHT22;11455;52.390;13.028;2023-07-08T05:57:24;22.90;1.00
22578;DHT22;11455;52.390;13.028;2023-07-08T05:59:49;22.90;1.00
22578;DHT22;11455;52.390;13.028;2023-07-08T06:02:16;22.90;1.00
22578;DHT22;11455;52.390;13.028;2023-07-08T06:04:42;22.90;1.00
22578;DHT22;11455;52.390;13.028;2023-07-08T06:07:07;23.00;1.00
22578;DHT22;11455;52.390;13.028;2023-07-08T06:09:33;23.00;1.00
22578;DHT22;11455;52.390;13.028;2023-07-08T06:11:59;23.00;1.00
22578;DHT22;11455;52.390;13.028;2023-07-08T06:14:26;23.00;1.00
22578;DHT22;11455;52.390;13.028;2023-07-08T06:16:52;23.00;1.00
22578;DHT22;11455;52.390;13.028;2023-07-08T06:19:17;23.00;1.00
22578;DHT22;11455;52.390;13.028;2023-07-08T06:21:43;23.00;1.00
22578;DHT22;11455;52.390;13.028;2023-07-08T06:24:09;23.10;1.00
22578;DHT22;11455;52.390;13.028;2023-07-08T06:26:34;23.10;1.00
22578;DHT22;11455;52.390;13.028;2023-07-08T06:29:03;23.20;1.00
22578;DHT22;11455;52.390;13.028;2023-07-08T06:31:29;23.20;1.00
22578;DHT22;11455;52.390;13.028;2023-07-08T06:33:54;23.20;1.00
22578;DHT22;11455;52.390;13.028;2023-07-08T06:36:20;23.20;1.00
22578;DHT22;11455;52.390;13.028;2023-07-08T06:38:45;23.20;1.00
22578;DHT22;11455;52.390;13.028;2023-07-08T06:41:11;23.20;1.00
22578;DHT22;11455;52.390;13.028;2023-07-08T06:43:37;23.20;1.00
22578;DHT22;11455;52.390;13.028;2023-07-08T06:46:20;23.20;1.00
22578;DHT22;11455;52.390;13.028;2023-07-08T06:48:45;23.20;1.00
22578;DHT22;11455;52.390;13.028;2023-07-08T06:51:11;23.20;1.00
22578;DHT22;11455;52.390;13.028;2023-07-08T06:53:37;23.30;1.00
22578;DHT22;11455;52.390;13.028;2023-07-08T06:56:02;23.30;1.00
22578;DHT22;11455;52.390;13.028;2023-07-08T06:58:28;23.40;1.00
22578;DHT22;11455;52.390;13.028;2023-07-08T07:00:54;23.50;1.00
22578;DHT22;11455;52.390;13.028;2023-07-08T07:03:19;23.50;1.00
22578;DHT22;11455;52.390;13.028;2023-07-08T07:05:45;23.60;1.00
22578;DHT22;11455;52.390;13.028;2023-07-08T07:08:10;23.50;1.00
22578;DHT22;11455;52.390;13.028;2023-07-08T07:10:36;23.50;1.00
22578;DHT22;11455;52.390;13.028;2023-07-08T07:13:02;23.60;1.00
22578;DHT22;11455;52.390;13.028;2023-07-08T07:15:27;23.60;1.00
22578;DHT22;11455;52.390;13.028;2023-07-08T07:17:56;23.70;1.00
22578;DHT22;11455;52.390;13.028;2023-07-08T07:20:22;23.80;1.00
22578;DHT22;11455;52.390;13.028;2023-07-08T07:22:47;23.80;1.00
22578;DHT22;11455;52.390;13.028;2023-07-08T07:25:13;23.90;1.00
22578;DHT22;11455;52.390;13.028;2023-07-08T07:27:39;23.90;1.00
22578;DHT22;11455;52.390;13.028;2023-07-08T07:30:04;24.00;1.00
22578;DHT22;11455;52.390;13.028;2023-07-08T07:32:30;24.10;1.00
22578;DHT22;11455;52.390;13.028;2023-07-08T07:34:58;24.10;1.00
22578;DHT22;11455;52.390;13.028;2023-07-08T07:37:25;24.20;1.00
22578;DHT22;11455;52.390;13.028;2023-07-08T07:39:53;24.30;1.00
22578;DHT22;11455;52.390;13.028;2023-07-08T07:42:19;24.30;1.00
22578;DHT22;11455;52.390;13.028;2023-07-08T07:44:44;24.40;1.00
22578;DHT22;11455;52.390;13.028;2023-07-08T07:47:10;24.40;1.00
22578;DHT22;11455;52.390;13.028;2023-07-08T07:49:36;24.50;1.00
22578;DHT22;11455;52.390;13.028;2023-07-08T07:52:02;24.60;1.00
22578;DHT22;11455;52.390;13.028;2023-07-08T07:54:28;24.70;1.00
22578;DHT22;11455;52.390;13.028;2023-07-08T07:56:54;24.70;1.00
22578;DHT22;11455;52.390;13.028;2023-07-08T07:59:19;24.80;1.00
22578;DHT22;11455;52.390;13.028;2023-07-08T08:01:45;24.80;1.00
22578;DHT22;11455;52.390;13.028;2023-07-08T08:04:11;24.90;1.00
22578;DHT22;11455;52.390;13.028;2023-07-08T08:06:39;24.90;1.00
22578;DHT22;11455;52.390;13.028;2023-07-08T08:09:08;25.00;1.00
22578;DHT22;11455;52.390;13.028;2023-07-08T08:11:33;25.10;1.00
22578;DHT22;11455;52.390;13.028;2023-07-08T08:13:59;25.20;1.00
22578;DHT22;11455;52.390;13.028;2023-07-08T08:16:25;25.30;1.00
22578;DHT22;11455;52.390;13.028;2023-07-08T08:18:51;25.30;1.00
22578;DHT22;11455;52.390;13.028;2023-07-08T08:21:16;25.40;1.00
22578;DHT22;11455;52.390;13.028;2023-07-08T08:23:42;25.50;1.00
22578;DHT22;11455;52.390;13.028;2023-07-08T08:26:08;25.60;1.00
22578;DHT22;11455;52.390;13.028;2023-07-08T08:28:34;25.60;1.00
22578;DHT22;11455;52.390;13.028;2023-07-08T08:30:59;25.60;1.00
22578;DHT22;11455;52.390;13.028;2023-07-08T08:33:27;25.70;1.00
22578;DHT22;11455;52.390;13.028;2023-07-08T08:35:53;25.80;1.00
22578;DHT22;11455;52.390;13.028;2023-07-08T08:38:18;25.90;1.00
22578;DHT22;11455;52.390;13.028;2023-07-08T08:40:46;26.00;1.00
22578;DHT22;11455;52.390;13.028;2023-07-08T08:43:17;26.10;1.00
22578;DHT22;11455;52.390;13.028;2023-07-08T08:45:46;26.20;1.00
22578;DHT22;11455;52.390;13.028;2023-07-08T08:48:15;26.20;99.90
22578;DHT22;11455;52.390;13.028;2023-07-08T08:53:17;26.40;99.90
22578;DHT22;11455;52.390;13.028;2023-07-08T08:55:43;26.50;99.90
22578;DHT22;11455;52.390;13.028;2023-07-08T09:04:05;26.70;99.90
22578;DHT22;11455;52.390;13.028;2023-07-08T09:06:11;26.70;99.90
22578;DHT22;11455;52.390;13.028;2023-07-08T09:08:40;26.80;99.90
22578;DHT22;11455;52.390;13.028;2023-07-08T09:13:53;26.80;99.90
22578;DHT22;11455;52.390;13.028;2023-07-08T09:16:26;26.90;99.90
22578;DHT22;11455;52.390;13.028;2023-07-08T09:18:59;26.90;99.90
22578;DHT22;11455;52.390;13.028;2023-07-08T09:21:28;27.00;99.90
22578;DHT22;11455;52.390;13.028;2023-07-08T09:23:56;27.00;99.90
22578;DHT22;11455;52.390;13.028;2023-07-08T09:26:25;27.00;99.90
22578;DHT22;11455;52.390;13.028;2023-07-08T09:28:52;27.10;99.90
22578;DHT22;11455;52.390;13.028;2023-07-08T09:31:29;27.10;99.90
22578;DHT22;11455;52.390;13.028;2023-07-08T09:34:05;27.10;99.90
22578;DHT22;11455;52.390;13.028;2023-07-08T09:36:31;27.10;99.90
22578;DHT22;11455;52.390;13.028;2023-07-08T09:38:57;27.10;99.90
22578;DHT22;11455;52.390;13.028;2023-07-08T09:41:32;27.00;99.90
22578;DHT22;11455;52.390;13.028;2023-07-08T09:44:06;27.10;99.90
22578;DHT22;11455;52.390;13.028;2023-07-08T09:46:36;27.10;99.90
22578;DHT22;11455;52.390;13.028;2023-07-08T09:49:15;27.10;99.90
22578;DHT22;11455;52.390;13.028;2023-07-08T09:51:41;27.10;99.90
22578;DHT22;11455;52.390;13.028;2023-07-08T09:54:07;27.10;99.90
22578;DHT22;11455;52.390;13.028;2023-07-08T09:56:33;27.10;99.90
22578;DHT22;11455;52.390;13.028;2023-07-08T09:59:02;27.20;99.90
22578;DHT22;11455;52.390;13.028;2023-07-08T10:01:27;27.20;99.90
22578;DHT22;11455;52.390;13.028;2023-07-08T10:03:58;27.20;99.90
22578;DHT22;11455;52.390;13.028;2023-07-08T10:06:29;27.20;99.90
22578;DHT22;11455;52.390;13.028;2023-07-08T10:08:59;27.30;99.90
22578;DHT22;11455;52.390;13.028;2023-07-08T10:11:27;27.40;99.90
22578;DHT22;11455;52.390;13.028;2023-07-08T10:13:54;27.50;99.90
22578;DHT22;11455;52.390;13.028;2023-07-08T10:16:25;27.50;99.90
22578;DHT22;11455;52.390;13.028;2023-07-08T10:18:52;27.50;99.90
22578;DHT22;11455;52.390;13.028;2023-07-08T10:23:47;27.40;99.90
22578;DHT22;11455;52.390;13.028;2023-07-08T10:36:37;27.40;99.90
22578;DHT22;11455;52.390;13.028;2023-07-08T10:41:47;27.50;99.90
22578;DHT22;11455;52.390;13.028;2023-07-08T11:00:07;27.60;99.90
22578;DHT22;11455;52.390;13.028;2023-07-08T11:07:32;28.00;99.90
22578;DHT22;11455;52.390;13.028;2023-07-08T11:10:05;28.10;99.90
22578;DHT22;11455;52.390;13.028;2023-07-08T11:12:38;28.10;99.90
22578;DHT22;11455;52.390;13.028;2023-07-08T11:17:38;28.10;99.90
22578;DHT22;11455;52.390;13.028;2023-07-08T11:20:16;28.10;99.90
22578;DHT22;11455;52.390;13.028;2023-07-08T11:22:45;28.20;99.90
22578;DHT22;11455;52.390;13.028;2023-07-08T11:25:16;28.20;99.90
22578;DHT22;11455;52.390;13.028;2023-07-08T11:27:43;28.00;99.90
22578;DHT22;11455;52.390;13.028;2023-07-08T11:32:37;28.00;99.90
22578;DHT22;11455;52.390;13.028;2023-07-08T11:35:05;28.10;99.90
22578;DHT22;11455;52.390;13.028;2023-07-08T11:37:31;28.00;99.90
22578;DHT22;11455;52.390;13.028;2023-07-08T11:40:17;28.10;99.90
22578;DHT22;11455;52.390;13.028;2023-07-08T11:42:44;28.10;99.90
22578;DHT22;11455;52.390;13.028;2023-07-08T11:45:19;28.10;99.90
22578;DHT22;11455;52.390;13.028;2023-07-08T11:47:49;28.10;99.90
22578;DHT22;11455;52.390;13.028;2023-07-08T11:50:24;28.20;99.90
22578;DHT22;11455;52.390;13.028;2023-07-08T11:52:51;28.20;99.90
22578;DHT22;11455;52.390;13.028;2023-07-08T11:55:22;28.30;99.90
22578;DHT22;11455;52.390;13.028;2023-07-08T11:57:52;28.30;99.90
22578;DHT22;11455;52.390;13.028;2023-07-08T12:00:20;28.40;99.90
22578;DHT22;11455;52.390;13.028;2023-07-08T12:02:51;28.40;99.90
22578;DHT22;11455;52.390;13.028;2023-07-08T12:05:19;28.60;99.90
22578;DHT22;11455;52.390;13.028;2023-07-08T12:07:55;28.60;99.90
22578;DHT22;11455;52.390;13.028;2023-07-08T12:10:45;28.70;99.90
22578;DHT22;11455;52.390;13.028;2023-07-08T12:13:14;28.70;99.90
22578;DHT22;11455;52.390;13.028;2023-07-08T12:15:40;28.60;99.90
22578;DHT22;11455;52.390;13.028;2023-07-08T12:20:52;28.70;99.90
22578;DHT22;11455;52.390;13.028;2023-07-08T12:23:19;28.60;99.90
22578;DHT22;11455;52.390;13.028;2023-07-08T12:25:46;28.70;99.90
22578;DHT22;11455;52.390;13.028;2023-07-08T12:28:12;28.80;99.90
22578;DHT22;11455;52.390;13.028;2023-07-08T12:30:38;29.00;99.90
22578;DHT22;11455;52.390;13.028;2023-07-08T12:33:05;29.10;99.90
22578;DHT22;11455;52.390;13.028;2023-07-08T12:35:34;29.20;99.90
22578;DHT22;11455;52.390;13.028;2023-07-08T12:38:17;29.30;99.90
22578;DHT22;11455;52.390;13.028;2023-07-08T12:40:43;29.40;99.90
22578;DHT22;11455;52.390;13.028;2023-07-08T12:43:09;29.50;99.90
22578;DHT22;11455;52.390;13.028;2023-07-08T12:45:35;29.60;99.90
22578;DHT22;11455;52.390;13.028;2023-07-08T12:48:01;29.60;99.90
22578;DHT22;11455;52.390;13.028;2023-07-08T12:50:29;29.70;99.90
22578;DHT22;11455;52.390;13.028;2023-07-08T12:52:55;29.60;99.90
22578;DHT22;11455;52.390;13.028;2023-07-08T12:55:21;29.60;99.90
22578;DHT22;11455;52.390;13.028;2023-07-08T12:57:48;29.80;99.90
22578;DHT22;11455;52.390;13.028;2023-07-08T13:00:21;29.80;99.90
22578;DHT22;11455;52.390;13.028;2023-07-08T13:02:47;29.90;99.90
22578;DHT22;11455;52.390;13.028;2023-07-08T13:05:19;29.90;99.90
22578;DHT22;11455;52.390;13.028;2023-07-08T13:07:44;29.90;99.90
22578;DHT22;11455;52.390;13.028;2023-07-08T13:10:18;30.00;99.90
22578;DHT22;11455;52.390;13.028;2023-07-08T13:12:44;30.10;99.90
22578;DHT22;11455;52.390;13.028;2023-07-08T13:15:21;30.20;99.90
22578;DHT22;11455;52.390;13.028;2023-07-08T13:17:50;30.20;99.90
22578;DHT22;11455;52.390;13.028;2023-07-08T13:20:16;30.30;99.90
22578;DHT22;11455;52.390;13.028;2023-07-08T13:22:42;30.30;99.90
22578;DHT22;11455;52.390;13.028;2023-07-08T13:25:14;30.40;99.90
22578;DHT22;11455;52.390;13.028;2023-07-08T13:27:41;30.40;99.90
22578;DHT22;11455;52.390;13.028;2023-07-08T13:30:17;30.50;99.90
22578;DHT22;11455;52.390;13.028;2023-07-08T13:32:43;30.60;99.90
22578;DHT22;11455;52.390;13.028;2023-07-08T13:37:55;30.60;99.90
22578;DHT22;11455;52.390;13.028;2023-07-08T13:40:21;30.70;99.90
22578;DHT22;11455;52.390;13.028;2023-07-08T13:42:48;30.80;99.90
22578;DHT22;11455;52.390;13.028;2023-07-08T13:45:19;30.80;99.90
22578;DHT22;11455;52.390;13.028;2023-07-08T13:47:56;30.90;99.90
22578;DHT22;11455;52.390;13.028;2023-07-08T13:50:23;31.00;99.90
22578;DHT22;11455;52.390;13.028;2023-07-08T13:52:54;31.00;99.90
22578;DHT22;11455;52.390;13.028;2023-07-08T13:55:20;31.00;99.90
22578;DHT22;11455;52.390;13.028;2023-07-08T13:57:54;31.00;99.90
22578;DHT22;11455;52.390;13.028;2023-07-08T14:00:20;31.00;99.90
22578;DHT22;11455;52.390;13.028;2023-07-08T14:02:46;31.00;99.90
22578;DHT22;11455;52.390;13.028;2023-07-08T14:05:13;31.10;99.90
22578;DHT22;11455;52.390;13.028;2023-07-08T14:07:39;31.30;99.90
22578;DHT22;11455;52.390;13.028;2023-07-08T14:10:10;31.40;99.90
22578;DHT22;11455;52.390;13.028;2023-07-08T14:12:36;31.50;99.90
22578;DHT22;11455;52.390;13.028;2023-07-08T14:15:02;31.70;99.90
22578;DHT22;11455;52.390;13.028;2023-07-08T14:17:28;31.80;99.90
22578;DHT22;11455;52.390;13.028;2023-07-08T14:19:54;31.80;99.90
22578;DHT22;11455;52.390;13.028;2023-07-08T14:22:26;31.70;99.90
22578;DHT22;11455;52.390;13.028;2023-07-08T14:24:53;31.70;99.90
22578;DHT22;11455;52.390;13.028;2023-07-08T14:27:19;31.70;99.90
22578;DHT22;11455;52.390;13.028;2023-07-08T14:29:48;31.70;99.90
22578;DHT22;11455;52.390;13.028;2023-07-08T14:34:40;31.70;99.90
22578;DHT22;11455;52.390;13.028;2023-07-08T14:37:13;31.70;99.90
22578;DHT22;11455;52.390;13.028;2023-07-08T14:39:43;31.70;99.90
22578;DHT22;11455;52.390;13.028;2023-07-08T14:42:10;31.70;99.90
22578;DHT22;11455;52.390;13.028;2023-07-08T14:44:37;31.80;99.90
22578;DHT22;11455;52.390;13.028;2023-07-08T14:47:04;31.90;99.90
22578;DHT22;11455;52.390;13.028;2023-07-08T14:49:32;31.80;99.90
22578;DHT22;11455;52.390;13.028;2023-07-08T14:51:58;31.70;99.90
22578;DHT22;11455;52.390;13.028;2023-07-08T14:54:23;31.70;99.90
22578;DHT22;11455;52.390;13.028;2023-07-08T14:56:49;31.70;99.90
22578;DHT22;11455;52.390;13.028;2023-07-08T14:59:16;31.80;99.90
22578;DHT22;11455;52.390;13.028;2023-07-08T15:01:43;31.80;99.90
22578;DHT22;11455;52.390;13.028;2023-07-08T15:04:14;31.80;99.90
22578;DHT22;11455;52.390;13.028;2023-07-08T15:06:40;31.70;99.90
22578;DHT22;11455;52.390;13.028;2023-07-08T15:09:06;31.60;99.90
22578;DHT22;11455;52.390;13.028;2023-07-08T15:11:32;31.60;99.90
22578;DHT22;11455;52.390;13.028;2023-07-08T15:13:58;31.60;99.90
22578;DHT22;11455;52.390;13.028;2023-07-08T15:16:24;31.60;99.90
22578;DHT22;11455;52.390;13.028;2023-07-08T15:18:50;31.70;99.90
22578;DHT22;11455;52.390;13.028;2023-07-08T15:21:16;31.70;99.90
22578;DHT22;11455;52.390;13.028;2023-07-08T15:23:43;31.80;99.90
22578;DHT22;11455;52.390;13.028;2023-07-08T15:26:10;31.80;99.90
22578;DHT22;11455;52.390;13.028;2023-07-08T15:28:40;31.70;99.90
22578;DHT22;11455;52.390;13.028;2023-07-08T15:31:10;31.70;99.90
22578;DHT22;11455;52.390;13.028;2023-07-08T15:33:38;31.50;99.90
22578;DHT22;11455;52.390;13.028;2023-07-08T15:36:04;31.60;99.90
22578;DHT22;11455;52.390;13.028;2023-07-08T15:38:32;31.60;99.90
22578;DHT22;11455;52.390;13.028;2023-07-08T15:40:57;31.60;99.90
22578;DHT22;11455;52.390;13.028;2023-07-08T15:43:25;31.60;99.90
22578;DHT22;11455;52.390;13.028;2023-07-08T15:45:51;31.60;99.90
22578;DHT22;11455;52.390;13.028;2023-07-08T15:48:17;31.70;99.90
22578;DHT22;11455;52.390;13.028;2023-07-08T15:50:45;31.60;99.90
22578;DHT22;11455;52.390;13.028;2023-07-08T15:53:11;31.70;99.90
22578;DHT22;11455;52.390;13.028;2023-07-08T15:55:37;31.70;99.90
22578;DHT22;11455;52.390;13.028;2023-07-08T15:58:08;31.60;99.90
22578;DHT22;11455;52.390;13.028;2023-07-08T16:00:36;31.40;99.90
22578;DHT22;11455;52.390;13.028;2023-07-08T16:03:05;31.40;99.90
22578;DHT22;11455;52.390;13.028;2023-07-08T16:05:31;31.40;99.90
22578;DHT22;11455;52.390;13.028;2023-07-08T16:08:00;31.30;99.90
22578;DHT22;11455;52.390;13.028;2023-07-08T16:10:26;31.20;99.90
22578;DHT22;11455;52.390;13.028;2023-07-08T16:12:51;31.20;99.90
22578;DHT22;11455;52.390;13.028;2023-07-08T16:15:25;31.20;99.90
22578;DHT22;11455;52.390;13.028;2023-07-08T16:17:52;31.20;99.90
22578;DHT22;11455;52.390;13.028;2023-07-08T16:20:22;31.20;99.90
22578;DHT22;11455;52.390;13.028;2023-07-08T16:22:48;31.10;99.90
22578;DHT22;11455;52.390;13.028;2023-07-08T16:25:14;31.10;99.90
22578;DHT22;11455;52.390;13.028;2023-07-08T16:27:41;31.00;99.90